Startpagina
METAR-TAF:

METAR-TAF

Vliegvelden :

Militair vliegvled

Meppen, Duitsland

breedte: 52-43-24N, lengte: 007-19-35E, hoogte: 21 m

Actueel weer

Dit bericht is 1 uur en het 1 minuten geleden gemaakt, om 21:20 UTC
Wind 5 kt uit het noordwesten
Temperatuur 13°C
Vochtigheid 94%
Druk 1022 hPa
Zicht: 9000 m

METAR: ETWM 242120Z AUTO 31005KT 9000 // ////// 13/12 Q1022 ///

Tijdstip: 00:21 (22:21 UTC)


TAF: ontbreekt

Waarnemingen en weersverwachtingen van meer dan 4000 vliegvelden (METAR en TAF).

De beschikbare stations zijn de gele en rode punten op de kaart.

Ga met uw muis naar het station om de naam te zien.

Klik dan om waarnemingen en weersverwachtingen te zien.

kaart wijzigen: klik op de groene knoppen met een zwart kruis om in te zoomen, op de groene knop met een streepje om uit te zoomen of op de groene pijlen voor aangrenzende kaarten.


METAR-TAF: